Time;durP1;ratioP1;P1;durP2;ratioP2;P2;SDS_P1;SDS_P2;PMS_P1;PMS_P2;Temp;Humidity;BMP_temperature;BMP_pressure;BME280_temperature;BME280_humidity;BME280_pressure;Samples;Min_cycle;Max_cycle;Signal;HPM_P1;HPM_P2
2022/05/17 00:01:41;;;;;;;7.80;3.92;;;15.20;99.90;;;;;;5007048;28;20050;-75
2022/05/17 00:04:07;;;;;;;13.27;3.38;;;15.20;99.90;;;;;;5007596;28;20117;-75
2022/05/17 00:06:33;;;;;;;5.82;3.53;;;15.20;99.90;;;;;;5006399;28;20056;-75
2022/05/17 00:08:59;;;;;;;6.35;4.18;;;15.20;99.90;;;;;;5007936;28;20101;-75
2022/05/17 00:11:25;;;;;;;12.40;3.67;;;15.20;99.90;;;;;;5005530;28;20042;-75
2022/05/17 00:13:51;;;;;;;10.48;4.30;;;15.20;99.90;;;;;;5007792;28;20081;-75
2022/05/17 00:16:17;;;;;;;12.85;4.50;;;15.10;99.90;;;;;;5007174;28;20073;-74
2022/05/17 00:18:43;;;;;;;10.23;4.55;;;15.10;99.90;;;;;;5007973;28;20076;-75
2022/05/17 00:21:08;;;;;;;11.52;5.07;;;15.10;99.90;;;;;;5007302;28;20398;-75
2022/05/17 00:23:36;;;;;;;6.97;3.55;;;15.00;99.90;;;;;;5007675;28;20081;-75
2022/05/17 00:26:04;;;;;;;11.73;4.18;;;15.00;99.90;;;;;;5007293;28;20061;-75
2022/05/17 00:28:29;;;;;;;9.07;3.72;;;15.00;99.90;;;;;;5006628;28;20489;-75
2022/05/17 00:30:55;;;;;;;17.23;4.65;;;15.00;99.90;;;;;;5022749;28;20104;-71
2022/05/17 00:33:21;;;;;;;12.65;4.30;;;15.00;99.90;;;;;;5005702;28;20408;-72
2022/05/17 00:35:47;;;;;;;11.05;3.42;;;15.00;99.90;;;;;;5007242;28;20062;-72
2022/05/17 00:38:14;;;;;;;7.40;4.22;;;15.00;99.90;;;;;;5006931;28;20053;-72
2022/05/17 00:40:40;;;;;;;8.00;4.18;;;15.00;99.90;;;;;;5006193;28;20037;-71
2022/05/17 00:43:13;;;;;;;13.30;6.07;;;14.90;99.90;;;;;;5005982;28;20045;-72
2022/05/17 00:45:46;;;;;;;7.65;3.60;;;14.90;99.90;;;;;;5006391;28;20085;-72
2022/05/17 00:48:12;;;;;;;10.32;3.75;;;14.90;99.90;;;;;;4987313;28;20053;-72
2022/05/17 00:50:46;;;;;;;6.82;3.90;;;14.90;99.90;;;;;;4989147;28;20126;-72
2022/05/17 00:53:30;;;;;;;16.50;4.03;;;14.80;99.90;;;;;;5004919;28;20038;-72
2022/05/17 00:55:58;;;;;;;8.38;4.03;;;14.90;99.90;;;;;;5005591;28;20515;-72
2022/05/17 00:58:48;;;;;;;12.07;4.18;;;14.90;99.90;;;;;;5005711;28;20050;-74
2022/05/17 01:01:18;;;;;;;7.28;3.70;;;14.90;99.90;;;;;;4986620;28;20030;-74
2022/05/17 01:03:53;;;;;;;9.05;3.83;;;14.90;99.90;;;;;;4987282;28;20465;-74
2022/05/17 01:06:21;;;;;;;7.22;4.85;;;14.90;99.90;;;;;;4993524;28;20382;-74
2022/05/17 01:08:47;;;;;;;8.30;3.67;;;14.90;99.90;;;;;;5021500;28;20535;-74
2022/05/17 01:11:13;;;;;;;6.22;3.90;;;14.80;99.90;;;;;;5005009;28;20077;-74
2022/05/17 01:16:24;;;;;;;10.30;4.53;;;14.80;99.90;;;;;;5004683;28;20056;-74
2022/05/17 01:18:50;;;;;;;9.30;3.40;;;14.80;99.90;;;;;;5005068;28;20085;-74
2022/05/17 01:21:15;;;;;;;8.07;3.78;;;14.80;99.90;;;;;;5004711;28;20066;-74
2022/05/17 01:23:41;;;;;;;8.15;3.65;;;14.80;99.90;;;;;;5004856;28;20042;-75
2022/05/17 01:26:14;;;;;;;11.02;5.05;;;14.80;99.90;;;;;;5003024;28;20042;-74
2022/05/17 01:28:40;;;;;;;6.50;4.18;;;14.80;99.90;;;;;;5005822;28;20096;-74
2022/05/17 01:31:06;;;;;;;19.38;4.32;;;14.80;99.90;;;;;;5005739;28;20041;-74
2022/05/17 01:33:36;;;;;;;4.90;3.50;;;14.70;99.90;;;;;;5005678;28;20053;-74
2022/05/17 01:36:05;;;;;;;5.60;3.10;;;14.80;99.90;;;;;;5004334;28;20058;-74
2022/05/17 01:38:31;;;;;;;19.77;4.95;;;14.70;99.90;;;;;;5004682;28;20038;-74
2022/05/17 01:40:57;;;;;;;12.63;3.53;;;14.70;99.90;;;;;;5005492;28;20038;-74
2022/05/17 01:43:23;;;;;;;9.35;3.33;;;14.70;99.90;;;;;;5004035;28;20050;-74
2022/05/17 01:45:48;;;;;;;3.75;2.88;;;14.70;99.90;;;;;;5004607;28;20052;-74
2022/05/17 01:48:14;;;;;;;8.40;3.55;;;14.70;99.90;;;;;;5005324;28;20046;-74
2022/05/17 01:50:39;;;;;;;9.98;4.25;;;14.70;99.90;;;;;;5005883;28;20038;-74
2022/05/17 01:53:05;;;;;;;6.88;3.38;;;14.70;99.90;;;;;;4987752;28;20468;-74
2022/05/17 01:55:31;;;;;;;7.47;3.53;;;14.70;99.90;;;;;;5005633;28;20091;-74
2022/05/17 01:57:56;;;;;;;9.75;4.18;;;14.60;99.90;;;;;;5004567;28;20042;-74
2022/05/17 02:00:23;;;;;;;10.63;4.18;;;14.60;99.90;;;;;;5005860;28;20049;-74
2022/05/17 02:02:51;;;;;;;7.07;3.97;;;14.60;99.90;;;;;;5005252;28;20042;-74
2022/05/17 02:05:18;;;;;;;9.68;4.15;;;14.60;99.90;;;;;;5005371;28;20053;-74
2022/05/17 02:07:44;;;;;;;7.47;4.13;;;14.60;99.90;;;;;;5005457;28;20057;-74
2022/05/17 02:10:10;;;;;;;4.70;3.17;;;14.50;99.90;;;;;;5004271;28;20447;-74
2022/05/17 02:12:36;;;;;;;4.78;3.58;;;14.50;99.90;;;;;;5003675;28;20112;-74
2022/05/17 02:15:05;;;;;;;4.82;3.35;;;14.50;99.90;;;;;;5020282;28;20405;-74
2022/05/17 02:17:31;;;;;;;13.88;4.60;;;14.50;99.90;;;;;;5004289;28;20426;-74
2022/05/17 02:19:58;;;;;;;13.10;3.72;;;14.50;99.90;;;;;;5004463;28;20048;-74
2022/05/17 02:22:24;;;;;;;17.40;3.88;;;14.50;99.90;;;;;;5003758;28;20089;-74
2022/05/17 02:24:50;;;;;;;9.85;4.35;;;14.50;99.90;;;;;;5005521;28;20096;-74
2022/05/17 02:27:16;;;;;;;9.82;3.47;;;14.40;99.90;;;;;;5003476;28;20038;-74
2022/05/17 02:29:41;;;;;;;9.18;3.67;;;14.40;99.90;;;;;;5005468;28;20044;-74
2022/05/17 02:32:07;;;;;;;7.60;3.38;;;14.40;99.90;;;;;;5004704;28;20037;-74
2022/05/17 02:34:35;;;;;;;4.60;3.05;;;14.40;99.90;;;;;;5005030;28;20056;-74
2022/05/17 02:37:00;;;;;;;5.63;3.63;;;14.30;99.90;;;;;;5003991;28;20046;-74
2022/05/17 02:39:26;;;;;;;5.93;3.65;;;14.30;99.90;;;;;;5005239;28;20042;-74
2022/05/17 02:41:51;;;;;;;4.80;3.38;;;14.30;99.90;;;;;;5002848;28;20096;-74
2022/05/17 02:44:17;;;;;;;15.90;4.47;;;14.30;99.90;;;;;;5004655;28;20050;-74
2022/05/17 02:46:42;;;;;;;8.80;4.47;;;14.20;99.90;;;;;;5004824;28;20042;-74
2022/05/17 02:49:08;;;;;;;11.27;4.60;;;14.20;99.90;;;;;;5004496;28;20049;-74
2022/05/17 02:51:34;;;;;;;12.57;4.05;;;14.20;99.90;;;;;;5005088;28;20045;-74
2022/05/17 02:54:00;;;;;;;6.07;3.25;;;14.20;99.90;;;;;;5004482;28;20049;-74
2022/05/17 02:56:26;;;;;;;9.73;3.92;;;14.20;99.90;;;;;;5002736;28;20049;-74
2022/05/17 02:58:52;;;;;;;7.47;3.13;;;14.10;99.90;;;;;;5004563;28;20037;-74
2022/05/17 03:01:18;;;;;;;7.03;3.85;;;14.10;99.90;;;;;;5004641;28;20670;-74
2022/05/17 03:03:43;;;;;;;9.95;4.30;;;14.10;99.90;;;;;;5004481;28;20135;-74
2022/05/17 03:06:10;;;;;;;3.85;3.38;;;14.10;99.90;;;;;;5004463;28;20042;-74
2022/05/17 03:08:36;;;;;;;12.70;3.53;;;14.00;99.90;;;;;;5003948;28;20058;-74
2022/05/17 03:11:03;;;;;;;7.68;3.85;;;14.00;99.90;;;;;;4985745;28;20505;-74
2022/05/17 03:13:28;;;;;;;7.28;3.95;;;14.00;99.90;;;;;;5003516;28;20128;-74
2022/05/17 03:15:54;;;;;;;5.18;3.45;;;14.00;99.90;;;;;;5004361;28;20527;-74
2022/05/17 03:18:19;;;;;;;8.95;3.60;;;14.00;99.90;;;;;;5002390;28;20045;-74
2022/05/17 03:20:47;;;;;;;10.27;3.55;;;14.00;99.90;;;;;;5004385;28;20042;-74
2022/05/17 03:23:13;;;;;;;10.88;3.63;;;14.00;99.90;;;;;;5004399;28;20049;-74
2022/05/17 03:25:38;;;;;;;13.73;3.97;;;14.00;99.90;;;;;;4986072;28;20046;-74
2022/05/17 03:28:04;;;;;;;11.13;3.05;;;14.00;99.90;;;;;;5004031;28;20042;-74
2022/05/17 03:30:30;;;;;;;5.75;3.25;;;14.00;99.90;;;;;;5004457;28;20504;-74
2022/05/17 03:32:55;;;;;;;12.13;3.67;;;14.00;99.90;;;;;;5003286;28;20116;-74
2022/05/17 03:35:21;;;;;;;7.97;3.65;;;14.00;99.90;;;;;;5003702;28;20312;-74
2022/05/17 03:37:47;;;;;;;11.40;3.83;;;14.00;99.90;;;;;;5002946;28;20757;-74
2022/05/17 03:40:13;;;;;;;7.82;3.80;;;14.00;99.90;;;;;;5002791;28;20176;-74
2022/05/17 03:42:38;;;;;;;12.15;3.58;;;14.00;99.90;;;;;;5002350;28;20042;-74
2022/05/17 03:45:05;;;;;;;5.07;3.53;;;14.00;99.90;;;;;;4986152;28;20050;-74
2022/05/17 03:47:33;;;;;;;3.38;2.38;;;13.90;99.90;;;;;;4988441;28;20047;-74
2022/05/17 03:49:59;;;;;;;6.47;3.90;;;13.90;99.90;;;;;;4983902;28;20128;-74
2022/05/17 03:52:29;;;;;;;4.40;2.67;;;13.90;99.90;;;;;;4983978;28;20048;-74
2022/05/17 03:55:00;;;;;;;6.30;2.58;;;13.90;99.90;;;;;;4984450;28;20046;-74
2022/05/17 03:57:27;;;;;;;5.85;3.13;;;13.90;99.90;;;;;;4984362;28;20116;-74
2022/05/17 03:59:53;;;;;;;4.63;2.72;;;13.90;99.90;;;;;;4983284;28;20101;-74
2022/05/17 04:02:19;;;;;;;10.02;3.30;;;13.90;99.90;;;;;;4982864;28;20058;-74
2022/05/17 04:04:45;;;;;;;8.52;3.22;;;14.00;99.90;;;;;;4997250;28;20064;-74
2022/05/17 04:07:11;;;;;;;4.10;3.45;;;13.90;99.90;;;;;;5003230;28;20408;-74
2022/05/17 04:09:37;;;;;;;7.95;3.00;;;14.00;99.90;;;;;;5003736;28;20061;-74
2022/05/17 04:12:04;;;;;;;4.80;4.10;;;14.00;99.90;;;;;;5001033;28;20049;-74
2022/05/17 04:14:30;;;;;;;4.57;3.03;;;14.00;99.90;;;;;;5003866;28;20093;-74
2022/05/17 04:16:56;;;;;;;7.80;4.15;;;14.00;99.90;;;;;;5002603;28;20042;-74
2022/05/17 04:19:21;;;;;;;5.28;3.05;;;14.00;99.90;;;;;;5003317;28;20381;-74
2022/05/17 04:21:47;;;;;;;14.10;3.45;;;14.00;99.90;;;;;;5003391;28;20339;-74
2022/05/17 04:24:14;;;;;;;2.97;2.67;;;14.00;99.90;;;;;;5003500;28;20053;-74
2022/05/17 04:26:39;;;;;;;8.48;3.83;;;14.00;99.90;;;;;;5002777;28;20082;-74
2022/05/17 04:29:05;;;;;;;5.82;3.00;;;14.00;99.90;;;;;;5004255;28;20041;-74
2022/05/17 04:31:30;;;;;;;9.00;3.15;;;14.10;99.90;;;;;;5007243;28;20455;-74
2022/05/17 04:33:56;;;;;;;8.00;2.97;;;14.10;99.90;;;;;;5006193;28;20046;-74
2022/05/17 04:36:22;;;;;;;4.93;2.95;;;14.10;99.90;;;;;;5005865;28;20060;-74
2022/05/17 04:38:48;;;;;;;3.75;2.80;;;14.10;99.90;;;;;;5007222;28;20403;-74
2022/05/17 04:41:15;;;;;;;13.93;3.35;;;14.10;99.90;;;;;;5006155;28;20034;-74
2022/05/17 04:43:40;;;;;;;11.68;3.50;;;14.10;99.90;;;;;;4989455;28;20484;-74
2022/05/17 04:46:08;;;;;;;5.90;3.85;;;14.10;99.90;;;;;;5002325;28;20088;-74
2022/05/17 04:48:34;;;;;;;13.15;5.35;;;14.10;99.90;;;;;;4986098;28;20453;-74
2022/05/17 04:50:59;;;;;;;11.10;3.25;;;14.20;99.90;;;;;;4995359;28;20096;-74
2022/05/17 04:53:25;;;;;;;3.15;2.85;;;14.20;99.90;;;;;;5006328;28;20038;-74
2022/05/17 04:55:50;;;;;;;7.22;3.10;;;14.10;99.90;;;;;;5006056;28;20046;-74
2022/05/17 04:58:16;;;;;;;5.90;3.15;;;14.20;99.90;;;;;;5006727;28;20069;-74
2022/05/17 05:00:42;;;;;;;6.43;2.75;;;14.20;99.90;;;;;;5005440;28;20091;-74
2022/05/17 05:03:08;;;;;;;9.55;3.58;;;14.30;99.90;;;;;;5006534;28;20522;-74
2022/05/17 05:05:33;;;;;;;10.15;3.63;;;14.30;99.90;;;;;;5005304;28;20046;-74
2022/05/17 05:07:59;;;;;;;7.30;3.80;;;14.30;99.90;;;;;;5006753;28;20053;-73
2022/05/17 05:10:24;;;;;;;14.15;3.03;;;14.40;99.90;;;;;;5004863;28;20408;-74
2022/05/17 05:12:50;;;;;;;3.15;2.58;;;14.40;99.90;;;;;;4993060;28;20346;-74
2022/05/17 05:15:16;;;;;;;11.70;3.33;;;14.50;99.90;;;;;;5002997;28;20045;-74
2022/05/17 05:17:42;;;;;;;5.00;3.75;;;14.50;99.90;;;;;;4991104;28;20058;-74
2022/05/17 05:20:15;;;;;;;9.25;3.55;;;14.60;99.90;;;;;;4997689;28;20503;-74
2022/05/17 05:22:40;;;;;;;5.95;3.00;;;14.60;99.90;;;;;;4994845;28;20204;-74
2022/05/17 05:25:06;;;;;;;15.32;3.17;;;14.70;99.90;;;;;;4992504;28;20265;-74
2022/05/17 05:27:34;;;;;;;5.53;3.35;;;14.70;99.90;;;;;;4988406;28;20042;-74
2022/05/17 05:30:00;;;;;;;5.68;3.47;;;14.80;99.90;;;;;;5001531;28;20783;-74
2022/05/17 05:32:26;;;;;;;15.65;4.18;;;14.80;99.90;;;;;;4991434;28;20045;-73
2022/05/17 05:34:51;;;;;;;4.38;2.40;;;14.90;99.90;;;;;;4991787;28;20049;-73
2022/05/17 05:37:17;;;;;;;12.32;3.40;;;14.90;99.90;;;;;;4996437;28;20053;-74
2022/05/17 05:39:43;;;;;;;8.50;3.58;;;14.90;99.90;;;;;;4991931;28;20045;-74
2022/05/17 05:42:09;;;;;;;4.25;3.65;;;14.90;99.90;;;;;;4986263;28;20559;-74
2022/05/17 05:44:35;;;;;;;6.78;3.65;;;14.90;99.90;;;;;;5004197;28;20041;-74
2022/05/17 05:47:00;;;;;;;8.10;2.70;;;14.90;99.90;;;;;;5002309;28;20088;-74
2022/05/17 05:49:26;;;;;;;8.30;3.75;;;14.90;99.90;;;;;;5003041;28;20038;-74
2022/05/17 05:51:52;;;;;;;9.93;2.85;;;14.90;99.90;;;;;;4998589;28;20092;-73
2022/05/17 05:54:18;;;;;;;7.30;3.25;;;14.90;99.90;;;;;;5005091;28;20041;-74
2022/05/17 05:56:43;;;;;;;7.28;2.63;;;15.00;99.90;;;;;;4998780;28;20271;-74
2022/05/17 05:59:09;;;;;;;7.63;2.97;;;15.00;99.90;;;;;;4996728;28;20033;-74
2022/05/17 06:01:35;;;;;;;10.63;3.15;;;15.00;99.90;;;;;;5004719;28;20059;-75
2022/05/17 06:04:01;;;;;;;9.88;3.33;;;15.00;99.90;;;;;;5003730;28;20361;-74
2022/05/17 06:06:27;;;;;;;5.85;3.42;;;15.00;99.90;;;;;;4999214;28;20042;-76
2022/05/17 06:08:53;;;;;;;7.15;2.45;;;15.00;99.90;;;;;;5004497;28;20448;-76
2022/05/17 06:11:19;;;;;;;5.97;3.75;;;15.10;99.90;;;;;;5004557;28;20048;-75
2022/05/17 06:13:44;;;;;;;11.38;4.32;;;15.10;99.90;;;;;;5004348;28;20054;-75
2022/05/17 06:16:10;;;;;;;15.43;3.20;;;15.10;99.90;;;;;;5003092;28;20393;-75
2022/05/17 06:18:38;;;;;;;9.52;3.10;;;15.10;99.90;;;;;;5003185;28;20100;-76
2022/05/17 06:21:04;;;;;;;17.15;3.20;;;15.20;99.90;;;;;;5004948;28;20050;-76
2022/05/17 06:23:30;;;;;;;4.13;2.80;;;15.20;99.90;;;;;;5005110;28;20046;-76
2022/05/17 06:25:55;;;;;;;10.82;2.85;;;15.20;99.90;;;;;;5004390;28;20540;-76
2022/05/17 06:28:21;;;;;;;4.80;2.60;;;15.30;99.90;;;;;;5002493;28;20085;-82
2022/05/17 06:30:47;;;;;;;9.13;2.95;;;15.30;99.90;;;;;;5006254;28;20045;-85
2022/05/17 06:33:14;;;;;;;5.95;2.53;;;15.30;99.90;;;;;;5005269;28;20588;-88
2022/05/17 06:35:42;;;;;;;8.13;3.20;;;15.30;99.90;;;;;;5008793;28;20065;-84
2022/05/17 06:38:09;;;;;;;10.85;3.20;;;15.40;99.90;;;;;;4980998;28;20093;-77
2022/05/17 06:40:36;;;;;;;7.90;2.53;;;15.40;99.90;;;;;;5003593;28;20046;-79
2022/05/17 06:43:02;;;;;;;10.23;3.05;;;15.50;99.90;;;;;;5003596;28;20050;-79
2022/05/17 06:45:27;;;;;;;13.30;4.22;;;15.50;99.90;;;;;;5001224;28;20064;-78
2022/05/17 06:47:53;;;;;;;3.65;2.83;;;15.50;99.90;;;;;;4985960;28;20050;-78
2022/05/17 06:50:19;;;;;;;4.43;2.75;;;15.50;99.90;;;;;;4984505;28;20039;-78
2022/05/17 06:52:44;;;;;;;8.82;3.28;;;15.60;99.90;;;;;;4982463;28;20055;-78
2022/05/17 06:55:11;;;;;;;12.65;3.42;;;15.60;99.90;;;;;;4982454;28;20441;-79
2022/05/17 06:57:37;;;;;;;6.38;2.67;;;15.60;99.90;;;;;;5004233;28;20041;-79
2022/05/17 07:00:05;;;;;;;11.23;2.50;;;15.60;99.90;;;;;;5004134;28;20404;-79
2022/05/17 07:02:32;;;;;;;6.60;2.47;;;15.70;99.90;;;;;;5002811;28;20049;-78
2022/05/17 07:04:59;;;;;;;18.20;3.28;;;15.70;99.90;;;;;;5003079;28;20076;-78
2022/05/17 07:07:25;;;;;;;10.35;3.13;;;15.70;99.90;;;;;;5002473;28;20527;-78
2022/05/17 07:15:19;;;;;;;6.53;2.67;;;15.80;99.90;;;;;;5004330;28;20053;-79
2022/05/17 07:17:45;;;;;;;7.18;2.22;;;15.90;99.90;;;;;;5003853;28;20658;-79
2022/05/17 07:20:11;;;;;;;4.88;2.22;;;15.90;99.90;;;;;;5002436;28;20122;-80
2022/05/17 07:22:37;;;;;;;3.78;2.15;;;15.90;99.90;;;;;;5003977;28;20045;-80
2022/05/17 07:25:03;;;;;;;5.70;1.73;;;16.00;99.90;;;;;;5002469;28;20049;-79
2022/05/17 07:27:29;;;;;;;11.73;2.75;;;16.00;99.90;;;;;;5004396;28;20072;-79
2022/05/17 07:29:54;;;;;;;16.48;3.03;;;16.10;99.90;;;;;;5004006;28;20403;-79
2022/05/17 07:32:20;;;;;;;4.60;2.40;;;16.10;99.90;;;;;;5002056;28;20942;-80
2022/05/17 07:34:47;;;;;;;7.82;3.15;;;16.10;99.90;;;;;;5002662;28;20496;-79
2022/05/17 07:37:14;;;;;;;7.65;2.22;;;16.10;99.90;;;;;;5003522;28;20042;-79
2022/05/17 07:39:40;;;;;;;2.28;1.90;;;16.20;99.90;;;;;;5002151;28;20045;-79
2022/05/17 07:42:06;;;;;;;2.70;1.90;;;16.20;99.90;;;;;;5001611;28;20044;-78
2022/05/17 07:44:33;;;;;;;7.32;2.50;;;16.20;99.90;;;;;;5018888;28;20074;-79
2022/05/17 07:46:58;;;;;;;7.30;3.17;;;16.30;99.90;;;;;;5001096;28;20052;-81
2022/05/17 07:49:24;;;;;;;7.20;2.30;;;16.30;99.90;;;;;;4998982;28;20073;-79
2022/05/17 07:51:49;;;;;;;4.35;2.28;;;16.30;99.90;;;;;;5004640;28;20439;-79
2022/05/17 07:54:15;;;;;;;4.15;2.47;;;16.30;99.90;;;;;;5001373;28;20157;-79
2022/05/17 07:56:41;;;;;;;8.70;2.63;;;16.30;99.90;;;;;;4990904;28;20034;-81
2022/05/17 07:59:06;;;;;;;2.67;1.83;;;16.40;99.90;;;;;;4991698;28;20485;-80
2022/05/17 08:01:32;;;;;;;6.47;2.50;;;16.40;99.90;;;;;;4991185;28;20041;-79
2022/05/17 08:03:58;;;;;;;4.13;2.22;;;16.40;99.90;;;;;;4995216;28;20128;-79
2022/05/17 08:06:24;;;;;;;6.82;2.40;;;16.40;99.90;;;;;;4989088;28;20400;-81
2022/05/17 08:08:50;;;;;;;3.05;2.35;;;16.40;99.90;;;;;;4987232;28;20800;-82
2022/05/17 08:11:15;;;;;;;6.47;1.80;;;16.40;99.90;;;;;;4998722;28;20528;-79
2022/05/17 08:13:41;;;;;;;3.88;1.95;;;16.50;99.90;;;;;;5006753;28;20038;-79
2022/05/17 08:16:06;;;;;;;2.83;1.92;;;16.50;99.90;;;;;;5004682;28;20042;-81
2022/05/17 08:18:32;;;;;;;7.18;1.38;;;16.50;99.90;;;;;;4996592;28;20053;-80
2022/05/17 08:20:58;;;;;;;9.25;2.35;;;16.60;99.90;;;;;;4994391;28;20097;-80
2022/05/17 08:23:23;;;;;;;3.17;2.03;;;16.60;99.90;;;;;;4995860;28;20500;-81
2022/05/17 08:28:33;;;;;;;2.40;1.60;;;16.60;99.90;;;;;;4995356;28;20201;-79
2022/05/17 08:30:59;;;;;;;7.60;2.22;;;16.60;99.90;;;;;;4996102;28;20166;-83
2022/05/17 08:33:26;;;;;;;13.90;2.10;;;16.60;99.90;;;;;;4995056;28;20553;-82
2022/05/17 08:36:01;;;;;;;5.13;1.80;;;16.70;99.90;;;;;;4991142;28;20197;-80
2022/05/17 08:38:32;;;;;;;4.43;1.85;;;16.70;99.90;;;;;;4997967;28;20112;-80
2022/05/17 08:41:05;;;;;;;4.20;1.45;;;16.70;99.90;;;;;;4994975;28;20046;-82
2022/05/17 08:43:53;;;;;;;3.42;1.65;;;16.80;99.90;;;;;;4995532;28;20084;-79
2022/05/17 08:46:56;;;;;;;2.25;2.00;;;16.80;99.90;;;;;;4996107;28;20041;-93
2022/05/17 08:49:27;;;;;;;3.67;1.33;;;16.90;99.90;;;;;;4999014;28;20042;-95
2022/05/17 08:52:10;;;;;;;11.20;1.73;;;16.90;99.90;;;;;;4994107;28;20046;-84
2022/05/17 08:54:53;;;;;;;5.15;1.88;;;16.90;99.90;;;;;;4995578;28;20480;-92
2022/05/17 08:57:28;;;;;;;4.82;1.40;;;17.00;99.90;;;;;;4993403;28;20042;-84
2022/05/17 08:59:57;;;;;;;6.00;1.77;;;17.00;99.90;;;;;;4998135;28;20519;-92
2022/05/17 09:02:30;;;;;;;3.60;1.00;;;17.10;99.90;;;;;;4996457;28;20053;-78
2022/05/17 09:05:08;;;;;;;3.42;1.33;;;17.20;99.90;;;;;;4998344;28;20307;-80
2022/05/17 09:07:50;;;;;;;2.10;1.55;;;17.20;99.90;;;;;;5026034;28;20122;-79
2022/05/17 09:10:30;;;;;;;1.20;1.10;;;17.20;99.90;;;;;;4993867;28;20128;-89
2022/05/17 09:13:04;;;;;;;1.42;1.33;;;17.30;99.90;;;;;;4993860;28;20047;-85
2022/05/17 09:15:30;;;;;;;4.53;1.30;;;17.30;99.90;;;;;;4991680;28;20401;-81
2022/05/17 09:17:58;;;;;;;5.90;1.13;;;17.40;99.90;;;;;;4996711;28;20053;-83
2022/05/17 09:20:31;;;;;;;3.92;1.60;;;17.30;99.90;;;;;;4993222;28;20043;-78
2022/05/17 09:22:58;;;;;;;2.83;1.10;;;17.40;99.90;;;;;;5002387;28;20547;-78
2022/05/17 09:25:45;;;;;;;2.97;1.15;;;17.40;99.90;;;;;;5014950;28;20112;-76
2022/05/17 09:28:12;;;;;;;6.22;1.30;;;17.40;99.90;;;;;;4984664;28;20485;-78
2022/05/17 09:30:39;;;;;;;3.30;1.63;;;17.50;99.90;;;;;;4990813;28;20051;-78
2022/05/17 09:33:12;;;;;;;5.13;2.00;;;17.60;99.90;;;;;;5001932;28;20042;-79
2022/05/17 09:36:00;;;;;;;8.25;1.08;;;17.70;99.90;;;;;;5004567;28;20074;-77
2022/05/17 09:38:30;;;;;;;5.40;1.60;;;17.70;99.90;;;;;;4993119;28;20519;-80
2022/05/17 09:40:56;;;;;;;1.23;0.85;;;17.70;99.90;;;;;;4996515;28;20070;-80
2022/05/17 09:43:45;;;;;;;3.17;0.93;;;17.70;99.90;;;;;;4992443;28;20070;-85
2022/05/17 09:46:27;;;;;;;1.98;1.25;;;17.70;99.90;;;;;;5000473;28;20038;-80
2022/05/17 09:54:37;;;;;;;5.05;1.23;;;17.70;99.90;;;;;;5002378;28;19987;-82
2022/05/17 09:57:14;;;;;;;3.58;1.75;;;17.70;99.90;;;;;;5000143;28;20127;-83
2022/05/17 09:59:41;;;;;;;1.85;1.20;;;17.80;99.90;;;;;;4997006;28;20041;-79
2022/05/17 10:02:28;;;;;;;2.20;1.50;;;17.80;99.90;;;;;;4997180;28;20084;-77
2022/05/17 10:05:10;;;;;;;1.08;0.90;;;17.90;99.90;;;;;;4995197;28;20119;-78
2022/05/17 10:07:36;;;;;;;5.85;2.03;;;17.90;99.90;;;;;;4993190;28;20096;-79
2022/05/17 10:10:20;;;;;;;5.03;1.60;;;18.00;99.90;;;;;;5003862;28;20477;-78
2022/05/17 10:12:48;;;;;;;3.95;1.50;;;18.10;99.90;;;;;;5006077;28;20052;-77
2022/05/17 10:15:15;;;;;;;2.78;0.95;;;18.10;99.90;;;;;;4994878;28;20122;-77
2022/05/17 10:17:49;;;;;;;3.30;0.68;;;18.10;99.90;;;;;;4986584;28;20129;-77
2022/05/17 10:20:26;;;;;;;1.27;0.88;;;18.10;99.90;;;;;;4986141;28;20050;-77
2022/05/17 10:23:00;;;;;;;5.10;1.45;;;18.10;99.90;;;;;;4992234;28;20052;-77
2022/05/17 10:25:48;;;;;;;2.17;0.70;;;18.20;99.90;;;;;;4988061;28;20077;-78
2022/05/17 10:28:36;;;;;;;2.08;0.98;;;18.30;99.90;;;;;;5003981;28;20077;-77
2022/05/17 10:31:10;;;;;;;1.23;1.08;;;18.30;99.90;;;;;;4999567;28;20103;-79
2022/05/17 10:33:48;;;;;;;1.50;0.93;;;18.30;99.90;;;;;;5007458;28;20405;-82
2022/05/17 10:36:27;;;;;;;2.58;1.23;;;18.30;99.90;;;;;;5006549;28;20196;-82
2022/05/17 10:39:04;;;;;;;2.08;0.98;;;18.30;99.90;;;;;;4985438;28;20046;-80
2022/05/17 10:41:29;;;;;;;3.28;1.10;;;18.40;99.90;;;;;;5002535;28;20041;-79
2022/05/17 10:43:55;;;;;;;11.38;1.45;;;18.40;99.90;;;;;;5006857;28;20622;-81
2022/05/17 10:46:26;;;;;;;1.35;1.02;;;18.40;99.90;;;;;;4997503;28;20054;-86
2022/05/17 10:48:58;;;;;;;1.20;0.98;;;18.40;99.90;;;;;;5004001;28;20048;-85
2022/05/17 10:51:51;;;;;;;1.17;0.77;;;18.50;99.90;;;;;;5008301;28;20073;-80
2022/05/17 10:54:37;;;;;;;1.45;1.13;;;18.50;99.90;;;;;;5006941;28;20046;-79
2022/05/17 10:57:11;;;;;;;1.90;1.52;;;18.50;99.90;;;;;;4990634;28;20059;-81
2022/05/17 10:59:52;;;;;;;1.00;0.90;;;18.50;99.90;;;;;;5019139;28;20059;-80
2022/05/17 11:02:46;;;;;;;3.25;1.40;;;18.60;99.90;;;;;;5023070;28;20053;-78
2022/05/17 11:05:21;;;;;;;2.55;0.70;;;18.60;99.90;;;;;;4985223;28;20141;-77
2022/05/17 11:08:15;;;;;;;1.05;0.63;;;18.70;99.90;;;;;;4983311;28;20468;-77
2022/05/17 11:11:07;;;;;;;5.47;1.13;;;18.70;99.90;;;;;;4983757;28;20092;-77
2022/05/17 11:14:05;;;;;;;1.88;1.02;;;18.70;99.90;;;;;;4993369;28;20046;-77
2022/05/17 11:16:44;;;;;;;0.85;0.82;;;18.80;99.90;;;;;;4989395;28;20089;-77
2022/05/17 11:19:25;;;;;;;1.17;0.40;;;18.90;99.90;;;;;;4988329;28;20050;-78
2022/05/17 11:21:58;;;;;;;3.33;0.77;;;18.80;99.90;;;;;;4995569;28;20050;-78
2022/05/17 11:25:03;;;;;;;6.20;0.85;;;18.90;99.90;;;;;;4994917;28;20048;-77
2022/05/17 11:27:51;;;;;;;3.92;1.00;;;18.90;99.90;;;;;;4993306;28;20088;-77
2022/05/17 11:30:28;;;;;;;2.53;0.65;;;18.90;99.90;;;;;;4994196;28;20261;-77
2022/05/17 11:33:09;;;;;;;2.53;1.25;;;18.90;99.90;;;;;;4994728;28;20128;-77
2022/05/17 11:35:46;;;;;;;0.82;0.80;;;19.00;99.90;;;;;;4995390;28;20408;-77
2022/05/17 11:38:37;;;;;;;1.20;1.00;;;19.10;99.90;;;;;;4992932;28;20054;-77
2022/05/17 11:41:41;;;;;;;4.97;1.00;;;19.10;99.90;;;;;;4993495;28;20057;-77
2022/05/17 11:44:10;;;;;;;1.75;1.30;;;19.10;99.90;;;;;;4999714;28;20832;-76
2022/05/17 11:46:54;;;;;;;3.25;1.58;;;19.20;99.90;;;;;;4994757;28;20054;-77
2022/05/17 11:49:31;;;;;;;5.50;1.33;;;19.20;99.90;;;;;;4984203;28;20050;-78
2022/05/17 11:51:57;;;;;;;1.65;0.98;;;19.10;99.90;;;;;;4985103;28;20121;-77
2022/05/17 11:54:45;;;;;;;4.18;1.42;;;19.20;99.90;;;;;;4983317;28;20149;-76
2022/05/17 11:57:12;;;;;;;4.05;0.80;;;19.30;99.90;;;;;;4983039;28;20055;-76
2022/05/17 11:59:43;;;;;;;2.78;0.88;;;19.30;99.90;;;;;;4994805;28;20080;-79
2022/05/17 12:02:13;;;;;;;1.17;0.98;;;19.40;99.90;;;;;;4986022;28;20034;-75
2022/05/17 12:04:46;;;;;;;2.67;0.85;;;19.40;99.90;;;;;;4999313;28;20041;-78
2022/05/17 12:07:28;;;;;;;2.08;0.98;;;19.40;99.90;;;;;;4987106;28;20167;-79
2022/05/17 12:09:57;;;;;;;1.77;1.10;;;19.50;99.90;;;;;;4998445;28;20050;-83
2022/05/17 12:12:50;;;;;;;6.70;0.68;;;19.50;99.90;;;;;;4986874;28;20061;-81
2022/05/17 12:15:38;;;;;;;0.98;0.98;;;19.50;99.90;;;;;;5004144;28;20041;-82
2022/05/17 12:18:09;;;;;;;4.72;1.08;;;19.50;99.90;;;;;;5022223;28;20181;-80
2022/05/17 12:21:04;;;;;;;1.75;0.88;;;19.50;99.90;;;;;;5000734;28;20068;-84
2022/05/17 12:23:38;;;;;;;0.60;0.60;;;19.60;99.90;;;;;;5004191;28;20424;-83
2022/05/17 12:26:08;;;;;;;1.35;0.80;;;19.60;99.90;;;;;;5001439;28;20045;-84
2022/05/17 12:28:39;;;;;;;1.52;1.08;;;19.60;99.90;;;;;;5003502;28;20141;-81
2022/05/17 12:31:12;;;;;;;1.73;1.07;;;19.70;99.90;;;;;;5002569;28;20045;-79
2022/05/17 12:33:42;;;;;;;1.73;0.98;;;19.70;99.90;;;;;;5002017;28;20053;-87
2022/05/17 12:36:24;;;;;;;2.25;1.13;;;19.70;99.90;;;;;;5002162;28;20563;-81
2022/05/17 12:44:33;;;;;;;1.98;1.15;;;19.70;99.90;;;;;;4991986;28;20125;-78
2022/05/17 12:47:00;;;;;;;0.80;0.60;;;19.70;99.90;;;;;;4992511;28;20118;-78
2022/05/17 12:49:29;;;;;;;4.68;0.65;;;19.80;99.90;;;;;;4998009;28;20053;-78
2022/05/17 12:51:58;;;;;;;1.33;1.23;;;19.80;99.90;;;;;;5005876;28;20125;-78
2022/05/17 12:54:28;;;;;;;2.75;1.13;;;19.90;99.90;;;;;;5005756;28;20610;-78
2022/05/17 12:56:53;;;;;;;6.82;1.23;;;20.10;99.90;;;;;;5003528;28;20053;-78
2022/05/17 12:59:25;;;;;;;0.90;0.88;;;20.10;99.90;;;;;;5000545;28;20048;-80
2022/05/17 13:01:57;;;;;;;1.45;1.02;;;20.10;99.90;;;;;;4995137;28;20128;-82
2022/05/17 13:04:28;;;;;;;;;;;20.10;99.90;;;;;;4990870;28;20050;-83
2022/05/17 13:07:10;;;;;;;0.73;0.63;;;20.10;99.90;;;;;;4994595;28;19936;-82
2022/05/17 13:09:37;;;;;;;1.73;1.05;;;20.10;99.90;;;;;;4991417;28;20086;-83
2022/05/17 13:12:13;;;;;;;0.63;0.63;;;20.10;99.90;;;;;;5000981;28;20515;-79
2022/05/17 13:14:39;;;;;;;2.42;0.65;;;20.10;99.90;;;;;;4994581;28;20038;-80
2022/05/17 13:17:12;;;;;;;3.40;0.50;;;20.20;99.90;;;;;;4992022;28;20552;-79
2022/05/17 13:19:40;;;;;;;0.70;0.70;;;20.20;99.90;;;;;;5002618;28;20046;-78
2022/05/17 13:22:08;;;;;;;0.80;0.80;;;20.20;99.90;;;;;;4995814;28;20087;-80